Time;durP1;ratioP1;P1;durP2;ratioP2;P2;SDS_P1;SDS_P2;PMS_P1;PMS_P2;Temp;Humidity;BMP_temperature;BMP_pressure;BME280_temperature;BME280_humidity;BME280_pressure;Samples;Min_cycle;Max_cycle;Signal;HPM_P1;HPM_P2
2021/07/10 00:00:28;;;;;;;3.13;2.27;;;;;;;;;;752875;185;916022;-75
2021/07/10 00:02:54;;;;;;;4.43;2.10;;;;;;;;;;745573;187;925734;-75
2021/07/10 00:05:20;;;;;;;4.20;1.80;;;;;;;;;;740571;186;915561;-75
2021/07/10 00:07:46;;;;;;;3.20;2.40;;;;;;;;;;745373;185;915097;-75
2021/07/10 00:10:12;;;;;;;3.77;2.10;;;;;;;;;;743419;186;928017;-75
2021/07/10 00:12:38;;;;;;;4.63;2.00;;;;;;;;;;743023;185;1021545;-74
2021/07/10 00:15:05;;;;;;;5.15;3.08;;;;;;;;;;745936;184;922577;-74
2021/07/10 00:17:31;;;;;;;4.77;2.13;;;;;;;;;;756644;184;937632;-75
2021/07/10 00:19:57;;;;;;;2.60;1.90;;;;;;;;;;747439;186;919514;-75
2021/07/10 00:22:23;;;;;;;6.80;3.20;;;;;;;;;;745620;186;1022015;-74
2021/07/10 00:24:49;;;;;;;7.80;1.87;;;;;;;;;;752010;186;918588;-74
2021/07/10 00:27:14;;;;;;;3.45;1.45;;;;;;;;;;746048;186;919882;-74
2021/07/10 00:29:40;;;;;;;7.97;2.43;;;;;;;;;;741856;184;918984;-74
2021/07/10 00:32:06;;;;;;;5.60;1.87;;;;;;;;;;747393;186;918658;-74
2021/07/10 00:34:32;;;;;;;2.70;1.90;;;;;;;;;;741027;185;918580;-73
2021/07/10 00:36:58;;;;;;;4.00;1.70;;;;;;;;;;737352;186;918394;-73
2021/07/10 00:39:24;;;;;;;4.40;1.80;;;;;;;;;;742390;185;1044750;-73
2021/07/10 00:41:49;;;;;;;5.80;2.20;;;;;;;;;;746804;186;919313;-73
2021/07/10 00:44:15;;;;;;;2.97;1.60;;;;;;;;;;746312;186;918977;-72
2021/07/10 00:46:41;;;;;;;3.50;1.60;;;;;;;;;;738720;186;1017887;-72
2021/07/10 00:49:07;;;;;;;3.25;1.58;;;;;;;;;;739548;186;919216;-72
2021/07/10 00:51:33;;;;;;;3.30;1.93;;;;;;;;;;746386;186;919373;-72
2021/07/10 00:53:59;;;;;;;3.87;1.87;;;;;;;;;;745011;186;919614;-73
2021/07/10 00:56:24;;;;;;;4.33;1.57;;;;;;;;;;751581;185;918226;-72
2021/07/10 00:58:50;;;;;;;3.37;2.30;;;;;;;;;;751294;185;919113;-72
2021/07/10 01:01:16;;;;;;;2.80;2.10;;;;;;;;;;748197;186;919975;-72
2021/07/10 01:03:44;;;;;;;3.27;1.57;;;;;;;;;;753306;186;919736;-71
2021/07/10 01:06:08;;;;;;;4.10;1.90;;;;;;;;;;745491;186;919222;-72
2021/07/10 01:08:35;;;;;;;6.97;2.30;;;;;;;;;;745928;184;912797;-72
2021/07/10 01:11:00;;;;;;;4.13;1.90;;;;;;;;;;747209;186;920384;-70
2021/07/10 01:13:26;;;;;;;6.10;2.07;;;;;;;;;;747542;186;915157;-72
2021/07/10 01:15:52;;;;;;;4.45;2.00;;;;;;;;;;747655;186;917973;-72
2021/07/10 01:18:18;;;;;;;5.03;2.30;;;;;;;;;;741227;183;1019536;-72
2021/07/10 01:20:44;;;;;;;4.73;2.10;;;;;;;;;;743590;185;917780;-72
2021/07/10 01:23:10;;;;;;;3.10;2.20;;;;;;;;;;740587;184;919080;-72
2021/07/10 01:25:36;;;;;;;6.40;2.90;;;;;;;;;;741104;186;920805;-72
2021/07/10 01:28:02;;;;;;;3.57;2.00;;;;;;;;;;752465;186;918561;-72
2021/07/10 01:30:27;;;;;;;3.90;1.70;;;;;;;;;;744873;185;914741;-71
2021/07/10 01:32:53;;;;;;;8.10;2.47;;;;;;;;;;745296;187;1008006;-72
2021/07/10 01:35:19;;;;;;;9.57;2.17;;;;;;;;;;745569;186;915580;-72
2021/07/10 01:37:45;;;;;;;8.03;2.43;;;;;;;;;;741722;186;919697;-73
2021/07/10 01:40:11;;;;;;;4.93;2.10;;;;;;;;;;740053;186;920271;-72
2021/07/10 01:42:37;;;;;;;5.13;3.23;;;;;;;;;;745725;186;919359;-71
2021/07/10 01:45:03;;;;;;;4.87;2.20;;;;;;;;;;751946;186;922957;-72
2021/07/10 01:47:29;;;;;;;5.30;1.90;;;;;;;;;;747463;186;919986;-71
2021/07/10 01:49:56;;;;;;;5.85;1.80;;;;;;;;;;746726;186;917980;-72
2021/07/10 01:52:21;;;;;;;5.27;2.50;;;;;;;;;;750983;186;1021261;-72
2021/07/10 01:54:47;;;;;;;2.90;2.00;;;;;;;;;;747484;183;1021028;-72
2021/07/10 01:57:13;;;;;;;12.67;2.40;;;;;;;;;;746028;186;919171;-72
2021/07/10 01:59:39;;;;;;;5.70;1.90;;;;;;;;;;745046;186;919523;-72
2021/07/10 02:02:05;;;;;;;2.77;1.87;;;;;;;;;;742797;186;916283;-72
2021/07/10 02:04:32;;;;;;;4.87;2.00;;;;;;;;;;742894;186;919777;-72
2021/07/10 02:06:59;;;;;;;3.00;1.70;;;;;;;;;;741587;184;918865;-72
2021/07/10 02:09:24;;;;;;;7.53;2.20;;;;;;;;;;751944;186;920421;-71
2021/07/10 02:11:49;;;;;;;7.50;1.90;;;;;;;;;;749495;185;919078;-72
2021/07/10 02:14:15;;;;;;;6.50;3.73;;;;;;;;;;741934;185;1016991;-72
2021/07/10 02:16:41;;;;;;;5.50;2.50;;;;;;;;;;750991;186;919585;-70
2021/07/10 02:19:07;;;;;;;4.47;2.60;;;;;;;;;;750809;184;919469;-71
2021/07/10 02:21:33;;;;;;;8.80;2.63;;;;;;;;;;742572;186;919442;-71
2021/07/10 02:23:59;;;;;;;13.10;2.60;;;;;;;;;;746444;184;919449;-72
2021/07/10 02:26:24;;;;;;;4.90;2.43;;;;;;;;;;746808;185;918487;-72
2021/07/10 02:28:58;;;;;;;11.13;3.13;;;;;;;;;;779074;173;920546;-72
2021/07/10 02:31:23;;;;;;;4.60;2.30;;;;;;;;;;761696;183;920125;-71
2021/07/10 02:33:49;;;;;;;4.60;2.57;;;;;;;;;;776528;180;918394;-70
2021/07/10 02:36:15;;;;;;;4.93;1.80;;;;;;;;;;771809;180;923196;-70
2021/07/10 02:38:41;;;;;;;7.57;1.60;;;;;;;;;;767653;180;918609;-69
2021/07/10 02:41:07;;;;;;;4.40;1.80;;;;;;;;;;780090;180;919496;-71
2021/07/10 02:43:33;;;;;;;3.80;1.50;;;;;;;;;;775131;179;919322;-71
2021/07/10 02:45:58;;;;;;;5.30;2.23;;;;;;;;;;768433;180;919739;-71
2021/07/10 02:48:24;;;;;;;6.97;2.20;;;;;;;;;;764696;181;919201;-70
2021/07/10 02:50:50;;;;;;;13.83;2.40;;;;;;;;;;770000;180;916319;-71
2021/07/10 02:53:16;;;;;;;4.70;2.03;;;;;;;;;;767199;180;918903;-71
2021/07/10 02:55:42;;;;;;;3.77;1.70;;;;;;;;;;773581;180;920582;-71
2021/07/10 02:58:08;;;;;;;14.97;2.20;;;;;;;;;;774362;180;919420;-71
2021/07/10 03:00:34;;;;;;;9.83;2.10;;;;;;;;;;766730;181;916370;-70
2021/07/10 03:03:00;;;;;;;9.18;2.17;;;;;;;;;;770002;179;954974;-71
2021/07/10 03:05:27;;;;;;;4.03;2.00;;;;;;;;;;775348;180;913449;-71
2021/07/10 03:07:51;;;;;;;11.40;2.07;;;;;;;;;;771354;181;911189;-70
2021/07/10 03:10:17;;;;;;;10.93;2.10;;;;;;;;;;768224;180;1016525;-70
2021/07/10 03:12:43;;;;;;;2.77;1.70;;;;;;;;;;774004;180;917886;-70
2021/07/10 03:15:09;;;;;;;4.70;1.63;;;;;;;;;;768400;180;1019810;-70
2021/07/10 03:17:35;;;;;;;10.40;1.93;;;;;;;;;;770199;180;919669;-70
2021/07/10 03:20:00;;;;;;;9.40;2.60;;;;;;;;;;770267;180;919547;-70
2021/07/10 03:22:26;;;;;;;9.80;2.50;;;;;;;;;;766736;182;913971;-70
2021/07/10 03:24:52;;;;;;;9.50;2.20;;;;;;;;;;767329;181;919246;-69
2021/07/10 03:27:18;;;;;;;3.87;2.10;;;;;;;;;;773188;180;918475;-69
2021/07/10 03:29:44;;;;;;;6.85;2.37;;;;;;;;;;777800;180;918828;-69
2021/07/10 03:32:10;;;;;;;5.20;2.03;;;;;;;;;;772558;181;918702;-70
2021/07/10 03:34:36;;;;;;;4.15;2.00;;;;;;;;;;770052;180;919643;-69
2021/07/10 03:37:02;;;;;;;4.40;2.23;;;;;;;;;;772298;181;919428;-70
2021/07/10 03:39:27;;;;;;;5.50;2.30;;;;;;;;;;775359;180;919812;-70
2021/07/10 03:41:53;;;;;;;3.00;1.90;;;;;;;;;;771123;180;919614;-70
2021/07/10 03:44:20;;;;;;;4.43;2.47;;;;;;;;;;772054;180;1419887;-69
2021/07/10 03:46:46;;;;;;;4.70;2.50;;;;;;;;;;763628;183;920626;-69
2021/07/10 03:49:12;;;;;;;8.87;2.53;;;;;;;;;;766420;180;919922;-69
2021/07/10 03:51:38;;;;;;;4.73;3.00;;;;;;;;;;774355;179;918751;-69
2021/07/10 03:54:03;;;;;;;6.20;3.07;;;;;;;;;;778855;180;918958;-69
2021/07/10 03:56:29;;;;;;;5.57;3.07;;;;;;;;;;775069;179;919004;-68
2021/07/10 03:58:55;;;;;;;5.30;2.80;;;;;;;;;;771562;180;919526;-68
2021/07/10 04:01:21;;;;;;;4.70;2.37;;;;;;;;;;775508;180;919586;-68
2021/07/10 04:03:47;;;;;;;5.27;3.40;;;;;;;;;;772281;180;917655;-68
2021/07/10 04:06:13;;;;;;;5.07;3.00;;;;;;;;;;769555;180;919054;-69
2021/07/10 04:08:38;;;;;;;6.87;3.35;;;;;;;;;;775415;180;919351;-67
2021/07/10 04:11:07;;;;;;;11.80;3.57;;;;;;;;;;764484;181;921782;-68
2021/07/10 04:13:30;;;;;;;6.15;3.90;;;;;;;;;;771812;180;920260;-68
2021/07/10 04:15:57;;;;;;;9.10;4.00;;;;;;;;;;767527;181;918488;-68
2021/07/10 04:18:22;;;;;;;5.47;3.77;;;;;;;;;;776890;180;919377;-69
2021/07/10 04:20:48;;;;;;;6.07;3.53;;;;;;;;;;768333;180;1018271;-68
2021/07/10 04:23:14;;;;;;;11.83;4.47;;;;;;;;;;768329;181;919221;-68
2021/07/10 04:25:39;;;;;;;5.17;3.57;;;;;;;;;;774306;180;915254;-68
2021/07/10 04:28:05;;;;;;;5.20;3.90;;;;;;;;;;771250;179;915704;-68
2021/07/10 04:30:31;;;;;;;7.80;5.20;;;;;;;;;;769632;180;919491;-68
2021/07/10 04:32:57;;;;;;;6.97;4.70;;;;;;;;;;775978;181;920571;-68
2021/07/10 04:35:23;;;;;;;8.10;4.97;;;;;;;;;;769117;180;920993;-68
2021/07/10 04:37:49;;;;;;;9.70;5.37;;;;;;;;;;772263;180;920107;-68
2021/07/10 04:40:14;;;;;;;8.20;5.53;;;;;;;;;;772303;181;1021501;-67
2021/07/10 04:42:40;;;;;;;6.60;5.00;;;;;;;;;;768603;182;915257;-70
2021/07/10 04:45:07;;;;;;;9.93;6.23;;;;;;;;;;767717;181;919504;-68
2021/07/10 04:47:32;;;;;;;10.70;5.70;;;;;;;;;;770755;180;918407;-68
2021/07/10 04:49:58;;;;;;;9.60;5.70;;;;;;;;;;776210;180;919802;-68
2021/07/10 04:52:24;;;;;;;7.47;5.82;;;;;;;;;;763479;182;919807;-68
2021/07/10 04:54:50;;;;;;;11.90;5.30;;;;;;;;;;767310;180;918876;-67
2021/07/10 04:57:16;;;;;;;8.10;5.03;;;;;;;;;;776127;180;918361;-68
2021/07/10 04:59:42;;;;;;;4.80;3.80;;;;;;;;;;772807;181;919579;-69
2021/07/10 05:02:07;;;;;;;5.20;4.22;;;;;;;;;;772418;180;1021478;-68
2021/07/10 05:04:33;;;;;;;4.43;3.50;;;;;;;;;;776946;180;919066;-69
2021/07/10 05:06:59;;;;;;;6.60;3.67;;;;;;;;;;772087;181;919726;-69
2021/07/10 05:09:25;;;;;;;4.00;3.50;;;;;;;;;;770645;180;919554;-69
2021/07/10 05:11:51;;;;;;;4.47;3.67;;;;;;;;;;768447;180;919136;-69
2021/07/10 05:14:17;;;;;;;3.80;2.90;;;;;;;;;;778473;179;919650;-71
2021/07/10 05:16:42;;;;;;;5.10;2.97;;;;;;;;;;770642;180;1021520;-69
2021/07/10 05:19:09;;;;;;;5.30;2.83;;;;;;;;;;771647;180;919361;-69
2021/07/10 05:21:34;;;;;;;3.53;2.50;;;;;;;;;;780434;180;918951;-70
2021/07/10 05:24:00;;;;;;;3.08;2.35;;;;;;;;;;770303;181;919517;-71
2021/07/10 05:26:27;;;;;;;4.47;2.70;;;;;;;;;;773403;180;919038;-70
2021/07/10 05:28:52;;;;;;;6.13;2.60;;;;;;;;;;774854;181;919265;-70
2021/07/10 05:31:17;;;;;;;6.30;2.80;;;;;;;;;;771025;181;919448;-71
2021/07/10 05:33:43;;;;;;;2.90;1.90;;;;;;;;;;769937;181;919218;-69
2021/07/10 05:36:09;;;;;;;3.62;2.55;;;;;;;;;;771702;180;919774;-68
2021/07/10 05:38:35;;;;;;;2.90;2.07;;;;;;;;;;769651;181;919306;-70
2021/07/10 05:41:01;;;;;;;6.13;2.03;;;;;;;;;;766644;181;919608;-71
2021/07/10 05:43:27;;;;;;;6.20;2.30;;;;;;;;;;766716;180;919502;-73
2021/07/10 05:45:53;;;;;;;11.40;2.57;;;;;;;;;;770995;182;919256;-71
2021/07/10 05:48:19;;;;;;;6.07;2.33;;;;;;;;;;771208;179;919535;-71
2021/07/10 05:50:44;;;;;;;3.10;2.40;;;;;;;;;;769803;180;919578;-71
2021/07/10 05:53:10;;;;;;;5.03;2.37;;;;;;;;;;773166;180;919202;-71
2021/07/10 05:55:36;;;;;;;2.50;1.90;;;;;;;;;;767838;180;919520;-72
2021/07/10 05:58:02;;;;;;;4.33;2.83;;;;;;;;;;770982;180;917933;-72
2021/07/10 06:00:30;;;;;;;4.07;1.97;;;;;;;;;;772278;180;916626;-71
2021/07/10 06:02:54;;;;;;;3.40;2.10;;;;;;;;;;769272;178;995392;-73
2021/07/10 06:05:19;;;;;;;2.60;1.90;;;;;;;;;;769566;180;952521;-73
2021/07/10 06:07:45;;;;;;;3.45;2.47;;;;;;;;;;769719;180;922798;-72
2021/07/10 06:10:11;;;;;;;3.13;2.60;;;;;;;;;;772132;179;1022314;-73
2021/07/10 06:12:37;;;;;;;2.63;2.20;;;;;;;;;;768226;181;919074;-73
2021/07/10 06:15:03;;;;;;;3.80;2.63;;;;;;;;;;769954;180;983227;-73
2021/07/10 06:17:29;;;;;;;2.70;2.30;;;;;;;;;;775610;181;918829;-74
2021/07/10 06:19:55;;;;;;;4.13;2.50;;;;;;;;;;767426;181;919547;-72
2021/07/10 06:22:20;;;;;;;3.17;2.42;;;;;;;;;;773467;181;920175;-74
2021/07/10 06:24:46;;;;;;;5.20;2.17;;;;;;;;;;777258;180;919018;-74
2021/07/10 06:27:12;;;;;;;2.70;1.93;;;;;;;;;;772885;180;919030;-72
2021/07/10 06:29:38;;;;;;;2.87;2.07;;;;;;;;;;766622;180;920298;-73
2021/07/10 06:32:07;;;;;;;3.85;2.47;;;;;;;;;;772652;180;919486;-70
2021/07/10 06:34:30;;;;;;;2.40;1.83;;;;;;;;;;764888;182;963610;-74
2021/07/10 06:36:56;;;;;;;2.60;1.97;;;;;;;;;;773283;180;919127;-75
2021/07/10 06:39:22;;;;;;;3.17;2.03;;;;;;;;;;771912;179;918175;-73
2021/07/10 06:41:48;;;;;;;2.85;1.83;;;;;;;;;;775527;180;920261;-76
2021/07/10 06:44:14;;;;;;;2.90;1.90;;;;;;;;;;769329;180;920514;-76
2021/07/10 06:46:40;;;;;;;2.73;1.77;;;;;;;;;;768146;180;915942;-76
2021/07/10 06:49:06;;;;;;;3.33;2.20;;;;;;;;;;775276;180;917084;-75
2021/07/10 06:51:31;;;;;;;2.55;1.80;;;;;;;;;;771445;180;919759;-75
2021/07/10 06:53:57;;;;;;;2.47;1.70;;;;;;;;;;770792;181;914312;-75
2021/07/10 06:56:23;;;;;;;3.20;1.77;;;;;;;;;;777310;180;1019041;-76
2021/07/10 06:58:49;;;;;;;2.30;1.80;;;;;;;;;;759878;180;1017590;-76
2021/07/10 07:01:15;;;;;;;2.30;1.57;;;;;;;;;;767310;180;915975;-77
2021/07/10 07:03:41;;;;;;;4.40;2.70;;;;;;;;;;769022;181;915520;-75
2021/07/10 07:06:06;;;;;;;3.90;2.00;;;;;;;;;;775429;181;919229;-77
2021/07/10 07:08:32;;;;;;;4.10;1.80;;;;;;;;;;769988;180;915275;-74
2021/07/10 07:10:58;;;;;;;6.55;1.80;;;;;;;;;;768644;180;919520;-76
2021/07/10 07:13:24;;;;;;;3.47;1.70;;;;;;;;;;775698;179;913866;-71
2021/07/10 07:15:50;;;;;;;5.73;2.47;;;;;;;;;;773425;180;918726;-77
2021/07/10 07:18:16;;;;;;;2.78;2.08;;;;;;;;;;772017;180;952274;-77
2021/07/10 07:20:43;;;;;;;5.03;2.30;;;;;;;;;;775697;180;919362;-78
2021/07/10 07:23:09;;;;;;;3.30;1.83;;;;;;;;;;763690;180;918328;-77
2021/07/10 07:25:35;;;;;;;2.60;2.07;;;;;;;;;;767284;181;1432207;-78
2021/07/10 07:28:01;;;;;;;2.20;1.80;;;;;;;;;;770054;180;918759;-74
2021/07/10 07:30:27;;;;;;;4.20;2.27;;;;;;;;;;778530;181;919312;-77
2021/07/10 07:32:52;;;;;;;5.93;2.03;;;;;;;;;;774471;180;918723;-76
2021/07/10 07:35:18;;;;;;;6.13;2.40;;;;;;;;;;772652;180;920158;-77
2021/07/10 07:37:44;;;;;;;2.43;1.67;;;;;;;;;;770240;181;913063;-76
2021/07/10 07:40:11;;;;;;;3.50;2.10;;;;;;;;;;771403;180;914876;-78
2021/07/10 07:42:36;;;;;;;2.67;1.87;;;;;;;;;;771307;180;877232;-78
2021/07/10 07:45:02;;;;;;;4.53;2.30;;;;;;;;;;777308;181;919296;-75
2021/07/10 07:47:28;;;;;;;3.43;1.80;;;;;;;;;;769947;179;949884;-77
2021/07/10 07:49:54;;;;;;;2.97;1.85;;;;;;;;;;770282;180;1020996;-76
2021/07/10 07:52:20;;;;;;;8.55;2.10;;;;;;;;;;770775;180;919570;-73
2021/07/10 07:54:46;;;;;;;2.77;2.07;;;;;;;;;;765457;183;919953;-76
2021/07/10 07:57:12;;;;;;;2.77;2.10;;;;;;;;;;752967;183;1070673;-78
2021/07/10 07:59:38;;;;;;;2.20;1.80;;;;;;;;;;776717;180;1021211;-76
2021/07/10 08:02:04;;;;;;;3.90;1.90;;;;;;;;;;774870;179;918994;-76
2021/07/10 08:04:30;;;;;;;3.70;2.30;;;;;;;;;;761398;181;919203;-74
2021/07/10 08:06:55;;;;;;;4.20;2.00;;;;;;;;;;766762;181;919074;-76
2021/07/10 08:09:21;;;;;;;2.57;1.83;;;;;;;;;;778104;180;816049;-75
2021/07/10 08:11:47;;;;;;;2.10;1.50;;;;;;;;;;770918;180;917514;-78
2021/07/10 08:14:13;;;;;;;3.53;2.10;;;;;;;;;;769623;180;1016317;-78
2021/07/10 08:16:39;;;;;;;4.23;2.20;;;;;;;;;;780186;180;814455;-82
2021/07/10 08:19:05;;;;;;;4.00;1.80;;;;;;;;;;772944;180;816490;-76
2021/07/10 08:21:33;;;;;;;4.60;1.90;;;;;;;;;;767483;180;1021412;-77
2021/07/10 08:23:58;;;;;;;3.80;2.00;;;;;;;;;;771036;180;918483;-78
2021/07/10 08:26:22;;;;;;;2.90;2.30;;;;;;;;;;777692;179;1021551;-76
2021/07/10 08:28:48;;;;;;;2.50;1.60;;;;;;;;;;774433;179;817347;-74
2021/07/10 08:31:14;;;;;;;3.83;2.70;;;;;;;;;;772016;180;1021894;-75
2021/07/10 08:33:40;;;;;;;2.20;1.67;;;;;;;;;;781582;180;815281;-80
2021/07/10 08:36:07;;;;;;;3.67;2.00;;;;;;;;;;770822;180;919174;-81
2021/07/10 08:38:31;;;;;;;5.60;2.50;;;;;;;;;;770664;181;919367;-76
2021/07/10 08:40:57;;;;;;;3.33;2.83;;;;;;;;;;777476;179;912539;-80
2021/07/10 08:43:23;;;;;;;4.37;2.60;;;;;;;;;;771627;180;924839;-80
2021/07/10 08:45:49;;;;;;;2.70;2.20;;;;;;;;;;770582;180;1000684;-76
2021/07/10 08:48:15;;;;;;;3.90;2.00;;;;;;;;;;773320;180;907367;-77
2021/07/10 08:50:41;;;;;;;4.70;2.77;;;;;;;;;;774564;180;871246;-76
2021/07/10 08:53:07;;;;;;;2.50;1.97;;;;;;;;;;770980;180;924126;-80
2021/07/10 08:55:33;;;;;;;2.40;2.07;;;;;;;;;;766357;181;919737;-78
2021/07/10 08:57:59;;;;;;;2.90;2.10;;;;;;;;;;773106;180;814139;-80
2021/07/10 09:00:27;;;;;;;2.67;2.10;;;;;;;;;;775542;180;844251;-75
2021/07/10 09:02:54;;;;;;;2.90;2.03;;;;;;;;;;772406;180;816142;-79
2021/07/10 09:05:19;;;;;;;5.50;2.53;;;;;;;;;;781599;180;817722;-78
2021/07/10 09:07:51;;;;;;;2.73;2.00;;;;;;;;;;771139;180;918239;-78
2021/07/10 09:10:17;;;;;;;2.97;2.27;;;;;;;;;;771206;180;919408;-77
2021/07/10 09:12:44;;;;;;;5.47;2.22;;;;;;;;;;767631;181;919045;-80
2021/07/10 09:15:15;;;;;;;3.30;2.60;;;;;;;;;;774713;180;916101;-78
2021/07/10 09:17:44;;;;;;;2.93;2.10;;;;;;;;;;768175;180;920369;-79
2021/07/10 09:20:11;;;;;;;2.83;2.20;;;;;;;;;;770275;180;917172;-79
2021/07/10 09:22:37;;;;;;;2.37;1.90;;;;;;;;;;774519;180;873251;-80
2021/07/10 09:25:03;;;;;;;3.53;2.40;;;;;;;;;;776581;180;879197;-79
2021/07/10 09:27:28;;;;;;;3.00;2.37;;;;;;;;;;767184;181;817903;-78
2021/07/10 09:29:55;;;;;;;3.03;2.07;;;;;;;;;;772780;180;817406;-81
2021/07/10 09:32:20;;;;;;;2.50;2.30;;;;;;;;;;775682;181;940093;-79
2021/07/10 09:34:46;;;;;;;2.80;2.47;;;;;;;;;;767645;181;1018381;-79
2021/07/10 09:37:14;;;;;;;2.87;2.20;;;;;;;;;;772049;179;919625;-73
2021/07/10 09:39:43;;;;;;;5.63;3.17;;;;;;;;;;774791;179;921068;-78
2021/07/10 09:42:07;;;;;;;3.23;2.83;;;;;;;;;;766532;181;918311;-78
2021/07/10 09:44:38;;;;;;;4.07;2.30;;;;;;;;;;759206;183;909254;-80
2021/07/10 09:47:04;;;;;;;3.30;2.77;;;;;;;;;;758982;183;874517;-78
2021/07/10 09:49:30;;;;;;;3.77;3.00;;;;;;;;;;779035;179;911206;-79
2021/07/10 09:51:56;;;;;;;2.70;2.40;;;;;;;;;;771550;180;1013754;-77
2021/07/10 09:54:22;;;;;;;2.60;2.00;;;;;;;;;;767979;181;916782;-79
2021/07/10 09:56:54;;;;;;;2.87;2.47;;;;;;;;;;773892;180;974052;-76
2021/07/10 09:59:20;;;;;;;9.43;2.40;;;;;;;;;;775486;180;918234;-77
2021/07/10 10:01:46;;;;;;;3.00;2.30;;;;;;;;;;771164;180;919213;-79
2021/07/10 10:04:17;;;;;;;2.83;2.30;;;;;;;;;;773661;180;816116;-80
2021/07/10 10:06:43;;;;;;;4.87;2.70;;;;;;;;;;770975;181;886430;-79
2021/07/10 10:09:17;;;;;;;3.40;2.47;;;;;;;;;;768376;181;919132;-81
2021/07/10 10:11:48;;;;;;;2.93;2.50;;;;;;;;;;770856;180;906035;-77
2021/07/10 10:14:13;;;;;;;6.80;2.70;;;;;;;;;;770726;180;919357;-78
2021/07/10 10:16:45;;;;;;;3.10;2.50;;;;;;;;;;768640;180;824996;-78
2021/07/10 10:19:05;;;;;;;2.60;2.27;;;;;;;;;;763619;183;920760;-79
2021/07/10 10:21:31;;;;;;;2.87;2.57;;;;;;;;;;768818;181;920224;-83
2021/07/10 10:23:57;;;;;;;4.20;2.30;;;;;;;;;;771120;180;945126;-78
2021/07/10 10:26:23;;;;;;;3.37;2.30;;;;;;;;;;775007;181;916377;-76
2021/07/10 10:28:49;;;;;;;2.72;2.25;;;;;;;;;;767272;180;916755;-80
2021/07/10 10:31:15;;;;;;;3.27;2.80;;;;;;;;;;765610;181;919206;-78
2021/07/10 10:33:42;;;;;;;3.10;2.80;;;;;;;;;;776353;180;816047;-77
2021/07/10 10:36:06;;;;;;;3.00;2.20;;;;;;;;;;771876;180;916720;-80
2021/07/10 10:38:32;;;;;;;2.45;1.98;;;;;;;;;;770857;180;1022157;-79
2021/07/10 10:40:58;;;;;;;6.53;2.80;;;;;;;;;;774501;180;918470;-77
2021/07/10 10:43:26;;;;;;;2.80;2.37;;;;;;;;;;770319;180;818684;-79
2021/07/10 10:45:50;;;;;;;3.30;2.33;;;;;;;;;;767908;180;1020495;-80
2021/07/10 10:48:16;;;;;;;2.90;2.07;;;;;;;;;;771515;180;1021248;-76
2021/07/10 10:50:42;;;;;;;2.60;2.30;;;;;;;;;;780152;179;783108;-84
2021/07/10 10:53:07;;;;;;;3.33;2.20;;;;;;;;;;774155;180;920578;-80
2021/07/10 10:55:33;;;;;;;3.93;2.47;;;;;;;;;;767833;179;1020858;-79
2021/07/10 10:58:00;;;;;;;3.03;2.00;;;;;;;;;;779523;180;916384;-80
2021/07/10 11:00:26;;;;;;;3.05;2.05;;;;;;;;;;770108;181;914974;-80
2021/07/10 11:02:52;;;;;;;3.03;2.17;;;;;;;;;;774402;180;815174;-80
2021/07/10 11:05:38;;;;;;;2.70;2.40;;;;;;;;;;776956;180;815426;-80
2021/07/10 11:08:09;;;;;;;3.30;2.70;;;;;;;;;;771623;180;915542;-80
2021/07/10 11:10:35;;;;;;;2.47;2.10;;;;;;;;;;773285;180;919217;-79
2021/07/10 11:13:02;;;;;;;2.60;2.00;;;;;;;;;;771202;180;990826;-81
2021/07/10 11:15:42;;;;;;;2.30;1.80;;;;;;;;;;769927;180;1017190;-79
2021/07/10 11:18:08;;;;;;;3.60;2.30;;;;;;;;;;773157;180;891389;-78
2021/07/10 11:20:40;;;;;;;2.73;2.10;;;;;;;;;;773810;181;921945;-77
2021/07/10 11:23:06;;;;;;;2.30;2.03;;;;;;;;;;775519;179;816417;-76
2021/07/10 11:25:38;;;;;;;2.90;2.20;;;;;;;;;;780049;178;614616;-77
2021/07/10 11:28:10;;;;;;;3.33;2.35;;;;;;;;;;782682;179;1099682;-82
2021/07/10 11:30:36;;;;;;;2.90;2.10;;;;;;;;;;776232;178;1211307;-76
2021/07/10 11:33:02;;;;;;;2.77;2.27;;;;;;;;;;771852;180;899562;-80
2021/07/10 11:35:32;;;;;;;3.00;2.20;;;;;;;;;;770577;180;917401;-77
2021/07/10 11:37:59;;;;;;;3.07;2.10;;;;;;;;;;771100;180;922382;-76
2021/07/10 11:40:25;;;;;;;3.33;2.57;;;;;;;;;;777412;179;914846;-80
2021/07/10 11:42:51;;;;;;;4.00;2.57;;;;;;;;;;772571;180;915991;-79
2021/07/10 11:45:18;;;;;;;2.57;2.10;;;;;;;;;;776265;179;915285;-77
2021/07/10 11:47:43;;;;;;;4.12;2.45;;;;;;;;;;775716;180;916186;-74
2021/07/10 11:50:08;;;;;;;2.50;2.03;;;;;;;;;;770840;180;914474;-78
2021/07/10 11:52:34;;;;;;;3.50;2.23;;;;;;;;;;771054;180;914643;-78
2021/07/10 11:55:00;;;;;;;6.00;2.40;;;;;;;;;;769361;180;873357;-78
2021/07/10 11:57:26;;;;;;;7.70;3.00;;;;;;;;;;773836;181;813363;-75
2021/07/10 11:59:52;;;;;;;2.57;2.23;;;;;;;;;;771546;180;876203;-76
2021/07/10 12:02:18;;;;;;;3.00;2.70;;;;;;;;;;772345;180;807604;-76
2021/07/10 12:05:00;;;;;;;3.17;2.50;;;;;;;;;;775585;179;817085;-78
2021/07/10 12:07:26;;;;;;;3.67;2.23;;;;;;;;;;777367;180;746712;-78
2021/07/10 12:09:52;;;;;;;8.70;2.43;;;;;;;;;;772742;180;900485;-77
2021/07/10 12:12:18;;;;;;;3.20;2.37;;;;;;;;;;772014;180;913171;-77
2021/07/10 12:14:50;;;;;;;3.73;2.17;;;;;;;;;;775485;180;866875;-75
2021/07/10 12:17:16;;;;;;;3.07;2.33;;;;;;;;;;775874;179;913145;-77
2021/07/10 12:19:41;;;;;;;5.13;2.30;;;;;;;;;;771316;180;919839;-77
2021/07/10 12:22:07;;;;;;;2.97;2.40;;;;;;;;;;770141;180;919216;-75
2021/07/10 12:24:33;;;;;;;3.30;2.43;;;;;;;;;;779068;180;818237;-73
2021/07/10 12:26:59;;;;;;;2.77;2.33;;;;;;;;;;771457;180;918579;-74
2021/07/10 12:29:25;;;;;;;4.63;2.60;;;;;;;;;;771480;180;837698;-81
2021/07/10 12:31:51;;;;;;;2.77;2.30;;;;;;;;;;777851;181;863583;-79
2021/07/10 12:34:18;;;;;;;3.17;2.20;;;;;;;;;;767744;181;920034;-77
2021/07/10 12:36:42;;;;;;;3.93;2.50;;;;;;;;;;772545;180;918011;-77
2021/07/10 12:39:12;;;;;;;2.78;2.30;;;;;;;;;;777837;179;919055;-73
2021/07/10 12:41:38;;;;;;;4.57;2.33;;;;;;;;;;773406;180;919252;-78
2021/07/10 12:44:06;;;;;;;2.87;2.20;;;;;;;;;;774204;180;816524;-72
2021/07/10 12:46:38;;;;;;;3.93;2.50;;;;;;;;;;767568;180;814991;-78
2021/07/10 12:49:08;;;;;;;2.53;2.10;;;;;;;;;;772489;180;1011031;-76
2021/07/10 12:51:34;;;;;;;3.67;2.20;;;;;;;;;;772172;180;918942;-75
2021/07/10 12:54:04;;;;;;;3.10;2.43;;;;;;;;;;764445;180;919953;-75
2021/07/10 12:56:33;;;;;;;3.23;2.53;;;;;;;;;;768058;180;918652;-79
2021/07/10 12:58:51;;;;;;;5.73;2.50;;;;;;;;;;774594;180;812575;-76
2021/07/10 13:01:19;;;;;;;4.00;2.33;;;;;;;;;;770151;180;918734;-76
2021/07/10 13:03:49;;;;;;;2.80;2.00;;;;;;;;;;773425;180;856821;-78
2021/07/10 13:06:14;;;;;;;5.00;2.40;;;;;;;;;;772347;179;916308;-74
2021/07/10 13:08:41;;;;;;;3.83;2.90;;;;;;;;;;780504;179;859022;-82
2021/07/10 13:11:07;;;;;;;3.10;2.33;;;;;;;;;;770082;179;922140;-83
2021/07/10 13:13:34;;;;;;;3.03;2.13;;;;;;;;;;771993;179;919497;-75
2021/07/10 13:16:06;;;;;;;2.93;2.00;;;;;;;;;;774967;180;813894;-80
2021/07/10 13:18:33;;;;;;;2.70;2.20;;;;;;;;;;769955;180;994806;-81
2021/07/10 13:20:58;;;;;;;3.60;2.20;;;;;;;;;;772120;180;823603;-76
2021/07/10 13:23:40;;;;;;;2.67;1.87;;;;;;;;;;772921;180;816600;-80
2021/07/10 13:26:06;;;;;;;2.20;1.90;;;;;;;;;;772805;180;816244;-79
2021/07/10 13:28:34;;;;;;;4.17;2.00;;;;;;;;;;778956;180;918190;-77
2021/07/10 13:31:06;;;;;;;3.13;2.37;;;;;;;;;;772516;180;918779;-75
2021/07/10 13:33:34;;;;;;;2.57;2.10;;;;;;;;;;775778;180;816883;-75
2021/07/10 13:36:02;;;;;;;2.40;2.10;;;;;;;;;;771621;180;917402;-74
2021/07/10 13:38:28;;;;;;;6.10;2.10;;;;;;;;;;760652;183;1021275;-75
2021/07/10 13:40:54;;;;;;;5.03;1.73;;;;;;;;;;768805;180;918412;-71
2021/07/10 13:43:20;;;;;;;2.80;1.90;;;;;;;;;;767215;181;919552;-78
2021/07/10 13:45:46;;;;;;;3.83;1.80;;;;;;;;;;772256;180;1021647;-81
2021/07/10 13:48:12;;;;;;;2.60;1.90;;;;;;;;;;770416;181;862987;-79
2021/07/10 13:50:37;;;;;;;6.07;2.73;;;;;;;;;;770926;180;919420;-73
2021/07/10 13:53:09;;;;;;;2.33;1.90;;;;;;;;;;774475;181;919043;-77
2021/07/10 13:55:35;;;;;;;5.20;2.90;;;;;;;;;;773660;180;919584;-74
2021/07/10 13:58:01;;;;;;;3.90;1.77;;;;;;;;;;770433;180;816360;-79
2021/07/10 14:00:32;;;;;;;4.63;1.80;;;;;;;;;;769590;180;898159;-77
2021/07/10 14:02:56;;;;;;;2.60;1.90;;;;;;;;;;774922;180;816795;-77
2021/07/10 14:05:24;;;;;;;2.43;1.80;;;;;;;;;;769815;179;920005;-79
2021/07/10 14:07:55;;;;;;;2.60;1.90;;;;;;;;;;772325;178;917552;-76
2021/07/10 14:10:20;;;;;;;4.00;1.80;;;;;;;;;;770891;181;904822;-79
2021/07/10 14:12:46;;;;;;;2.57;1.70;;;;;;;;;;775737;180;816503;-74
2021/07/10 14:15:12;;;;;;;2.33;1.67;;;;;;;;;;769990;181;918834;-75
2021/07/10 14:17:38;;;;;;;2.53;2.00;;;;;;;;;;768365;181;915773;-78
2021/07/10 14:20:04;;;;;;;2.23;1.53;;;;;;;;;;781216;179;822274;-79
2021/07/10 14:22:30;;;;;;;3.23;1.50;;;;;;;;;;771242;180;816162;-74